createdAt,value
2019-03-09T00:00:46.590Z,97601.30
2019-03-09T00:01:42.406Z,97606.36
2019-03-09T00:02:33.729Z,97609.03
2019-03-09T00:03:24.870Z,97612.83
2019-03-09T00:04:16.298Z,97616.05
2019-03-09T00:05:06.646Z,97620.88
2019-03-09T00:05:57.108Z,97622.22
2019-03-09T00:06:47.759Z,97623.52
2019-03-09T00:07:38.502Z,97624.30
2019-03-09T00:08:29.426Z,97623.72
2019-03-09T00:09:20.322Z,97622.66
2019-03-09T00:10:12.409Z,97624.53
2019-03-09T00:11:03.763Z,97620.73
2019-03-09T00:11:54.582Z,97629.89
2019-03-09T00:12:45.171Z,97618.56
2019-03-09T00:13:35.837Z,97623.42
2019-03-09T00:14:27.018Z,97624.73
2019-03-09T00:15:17.665Z,97621.49
2019-03-09T00:16:09.556Z,97623.32
2019-03-09T00:17:00.223Z,97636.53
2019-03-09T00:17:52.038Z,97629.44
2019-03-09T00:18:43.594Z,97625.39
2019-03-09T00:19:34.277Z,97627.56
2019-03-09T00:20:24.997Z,97626.16
2019-03-09T00:21:15.520Z,97623.75
2019-03-09T00:22:05.868Z,97624.81
2019-03-09T00:23:24.849Z,97626.20
2019-03-09T00:24:24.309Z,97625.09
2019-03-09T00:25:28.312Z,97623.69
2019-03-09T00:26:27.539Z,97627.69
2019-03-09T00:27:46.719Z,97615.83
2019-03-09T00:28:44.871Z,97618.77
2019-03-09T00:30:04.524Z,97620.10
2019-03-09T00:31:04.253Z,97615.47
2019-03-09T00:32:01.110Z,97619.23
2019-03-09T00:32:51.984Z,97630.23
2019-03-09T00:33:43.074Z,97629.97
2019-03-09T00:34:33.512Z,97619.76
2019-03-09T00:35:24.375Z,97619.52
2019-03-09T00:36:14.751Z,97619.72
2019-03-09T00:37:05.265Z,97610.25
2019-03-09T00:37:55.702Z,97631.00
2019-03-09T00:38:46.618Z,97618.92
2019-03-09T00:39:37.298Z,97625.39
2019-03-09T00:40:28.441Z,97623.50
2019-03-09T00:41:18.799Z,97627.77
2019-03-09T00:42:08.974Z,97617.23
2019-03-09T00:42:59.799Z,97616.64
2019-03-09T00:43:50.455Z,97612.84
2019-03-09T00:44:41.146Z,97621.22
2019-03-09T00:45:32.352Z,97625.84
2019-03-09T00:46:23.038Z,97614.30
2019-03-09T00:47:13.871Z,97618.05
2019-03-09T00:48:04.865Z,97621.80
2019-03-09T00:48:56.324Z,97619.86
2019-03-09T00:49:46.909Z,97612.23
2019-03-09T00:50:37.629Z,97613.88
2019-03-09T00:51:28.720Z,97620.61
2019-03-09T00:52:19.226Z,97612.23
2019-03-09T00:53:10.278Z,97617.10
2019-03-09T00:54:00.374Z,97617.58
2019-03-09T00:54:51.054Z,97606.80
2019-03-09T00:55:42.311Z,97611.97
2019-03-09T00:56:33.197Z,97609.56
2019-03-09T00:57:23.684Z,97610.42
2019-03-09T00:58:13.940Z,97608.79
2019-03-09T00:59:04.249Z,97606.91
2019-03-09T00:59:57.682Z,97611.77
2019-03-09T01:00:48.272Z,97601.82
2019-03-09T01:01:39.836Z,97606.68
2019-03-09T01:02:31.178Z,97612.02
2019-03-09T01:03:21.673Z,97615.59
2019-03-09T01:04:12.809Z,97611.77
2019-03-09T01:05:03.519Z,97607.44
2019-03-09T01:05:54.996Z,97611.02
2019-03-09T01:06:45.826Z,97611.84
2019-03-09T01:07:37.059Z,97614.01
2019-03-09T01:08:27.734Z,97608.33
2019-03-09T01:09:19.334Z,97610.73
2019-03-09T01:10:12.681Z,97604.00
2019-03-09T01:11:04.103Z,97603.22
2019-03-09T01:11:54.734Z,97608.91
2019-03-09T01:12:45.279Z,97602.42
2019-03-09T01:13:35.472Z,97609.16
2019-03-09T01:14:26.267Z,97604.00
2019-03-09T01:15:16.631Z,97603.77
2019-03-09T01:16:07.334Z,97608.14
2019-03-09T01:16:58.534Z,97606.22
2019-03-09T01:17:50.820Z,97607.86
2019-03-09T01:18:41.341Z,97597.89
2019-03-09T01:19:31.918Z,97601.65
2019-03-09T01:20:23.537Z,97604.40
2019-03-09T01:21:14.136Z,97603.11
2019-03-09T01:22:05.243Z,97606.58
2019-03-09T01:22:55.911Z,97609.80
2019-03-09T01:23:46.642Z,97605.46
2019-03-09T01:24:38.443Z,97600.36
2019-03-09T01:25:29.742Z,97608.17
2019-03-09T01:26:20.962Z,97609.26
2019-03-09T01:27:11.285Z,97604.70
2019-03-09T01:28:02.608Z,97603.59
2019-03-09T01:28:52.775Z,97601.70
2019-03-09T01:29:43.362Z,97600.36
2019-03-09T01:30:33.792Z,97596.86
2019-03-09T01:31:25.315Z,97597.95
2019-03-09T01:32:16.066Z,97599.06
2019-03-09T01:33:06.658Z,97591.27
2019-03-09T01:33:57.334Z,97581.83
2019-03-09T01:34:47.862Z,97585.34
2019-03-09T01:35:38.770Z,97588.05
2019-03-09T01:36:29.073Z,97592.05
2019-03-09T01:37:19.697Z,97586.40
2019-03-09T01:38:10.625Z,97583.47
2019-03-09T01:39:00.922Z,97588.29
2019-03-09T01:39:51.090Z,97589.87
2019-03-09T01:40:41.613Z,97589.86
2019-03-09T01:41:32.805Z,97586.02
2019-03-09T01:42:22.751Z,97590.64
2019-03-09T01:43:13.534Z,97593.91
2019-03-09T01:44:03.513Z,97590.92
2019-03-09T01:44:53.820Z,97584.18
2019-03-09T01:45:44.602Z,97580.44
2019-03-09T01:46:36.440Z,97592.03
2019-03-09T01:47:26.905Z,97591.99
2019-03-09T01:48:18.663Z,97586.60
2019-03-09T01:49:09.466Z,97586.36
2019-03-09T01:49:59.566Z,97583.42
2019-03-09T01:50:50.075Z,97584.77
2019-03-09T01:51:41.880Z,97579.62
2019-03-09T01:52:32.773Z,97578.03
2019-03-09T01:53:24.357Z,97581.89
2019-03-09T01:54:15.220Z,97573.80
2019-03-09T01:55:06.135Z,97573.27
2019-03-09T01:55:57.501Z,97574.38
2019-03-09T01:56:48.176Z,97578.96
2019-03-09T01:57:38.529Z,97575.20
2019-03-09T01:58:28.618Z,97577.62
2019-03-09T01:59:19.140Z,97582.19
2019-03-09T02:00:09.456Z,97575.73
2019-03-09T02:00:59.631Z,97575.45
2019-03-09T02:01:51.318Z,97574.63
2019-03-09T02:02:41.539Z,97574.61
2019-03-09T02:03:31.815Z,97575.96
2019-03-09T02:04:22.845Z,97579.50
2019-03-09T02:05:13.510Z,97577.36
2019-03-09T02:06:03.672Z,97573.56
2019-03-09T02:06:54.405Z,97574.87
2019-03-09T02:07:45.362Z,97575.69
2019-03-09T02:08:36.205Z,97580.83
2019-03-09T02:09:27.458Z,97567.92
2019-03-09T02:10:18.347Z,97570.62
2019-03-09T02:11:08.760Z,97576.02
2019-03-09T02:11:59.707Z,97580.35
2019-03-09T02:12:49.704Z,97577.13
2019-03-09T02:13:41.210Z,97567.45
2019-03-09T02:14:32.180Z,97576.89
2019-03-09T02:15:23.598Z,97583.35
2019-03-09T02:16:14.630Z,97573.42
2019-03-09T02:17:05.058Z,97571.30
2019-03-09T02:17:55.650Z,97572.94
2019-03-09T02:18:46.114Z,97572.94
2019-03-09T02:19:36.982Z,97564.80
2019-03-09T02:20:27.474Z,97572.12
2019-03-09T02:21:18.831Z,97563.75
2019-03-09T02:22:09.339Z,97566.45
2019-03-09T02:23:00.554Z,97568.89
2019-03-09T02:23:51.446Z,97571.06
2019-03-09T02:24:43.249Z,97555.70
2019-03-09T02:25:34.275Z,97557.33
2019-03-09T02:26:24.490Z,97567.34
2019-03-09T02:27:15.032Z,97566.81
2019-03-09T02:28:05.329Z,97553.62
2019-03-09T02:28:55.831Z,97559.87
2019-03-09T02:29:47.130Z,97555.29
2019-03-09T02:30:38.426Z,97551.53
2019-03-09T02:31:29.033Z,97548.02
2019-03-09T02:32:19.742Z,97542.90
2019-03-09T02:33:09.750Z,97551.73
2019-03-09T02:33:59.826Z,97548.79
2019-03-09T02:34:49.966Z,97549.28
2019-03-09T02:35:40.621Z,97545.80
2019-03-09T02:36:31.257Z,97545.80
2019-03-09T02:37:23.092Z,97543.59
2019-03-09T02:38:21.529Z,97544.45
2019-03-09T02:39:31.697Z,97549.33
2019-03-09T02:40:24.645Z,97557.17
2019-03-09T02:41:14.936Z,97550.42
2019-03-09T02:42:05.173Z,97551.00
2019-03-09T02:42:55.696Z,97552.88
2019-03-09T02:43:45.919Z,97549.65
2019-03-09T02:44:36.884Z,97547.20
2019-03-09T02:45:28.001Z,97550.43
2019-03-09T02:46:18.990Z,97545.03
2019-03-09T02:47:09.547Z,97550.72
2019-03-09T02:48:00.193Z,97543.97
2019-03-09T02:48:50.820Z,97540.98
2019-03-09T02:49:40.970Z,97542.09
2019-03-09T02:50:31.265Z,97538.28
2019-03-09T02:51:22.332Z,97540.45
2019-03-09T02:52:12.907Z,97541.77
2019-03-09T02:53:03.722Z,97543.11
2019-03-09T02:53:54.913Z,97544.20
2019-03-09T02:54:45.965Z,97542.05
2019-03-09T02:55:37.199Z,97546.34
2019-03-09T02:56:27.494Z,97541.47
2019-03-09T02:57:17.713Z,97539.05
2019-03-09T02:58:07.991Z,97532.03
2019-03-09T02:58:58.952Z,97541.75
2019-03-09T02:59:50.124Z,97533.95
2019-03-09T03:00:45.302Z,97538.81
2019-03-09T03:02:01.322Z,97542.33
2019-03-09T03:02:56.228Z,97544.25
2019-03-09T03:03:46.872Z,97533.45
2019-03-09T03:04:37.444Z,97530.19
2019-03-09T03:05:27.700Z,97540.73
2019-03-09T03:06:17.917Z,97537.22
2019-03-09T03:07:08.810Z,97542.66
2019-03-09T03:07:59.191Z,97531.89
2019-03-09T03:08:50.216Z,97537.02
2019-03-09T03:09:41.560Z,97532.42
2019-03-09T03:10:31.759Z,97535.38
2019-03-09T03:11:22.824Z,97532.14
2019-03-09T03:12:13.140Z,97532.68
2019-03-09T03:13:03.406Z,97531.33
2019-03-09T03:13:53.432Z,97536.48
2019-03-09T03:14:43.881Z,97535.66
2019-03-09T03:15:35.236Z,97529.20
2019-03-09T03:16:25.758Z,97534.88
2019-03-09T03:17:17.241Z,97530.30
2019-03-09T03:18:08.121Z,97530.02
2019-03-09T03:18:59.140Z,97525.15
2019-03-09T03:19:49.486Z,97523.27
2019-03-09T03:20:39.756Z,97532.92
2019-03-09T03:21:30.341Z,97527.77
2019-03-09T03:22:21.233Z,97531.78
2019-03-09T03:23:12.147Z,97519.39
2019-03-09T03:24:02.511Z,97529.41
2019-03-09T03:24:53.121Z,97532.07
2019-03-09T03:25:43.441Z,97530.97
2019-03-09T03:26:33.683Z,97526.39
2019-03-09T03:27:24.331Z,97530.44
2019-03-09T03:28:15.622Z,97525.85
2019-03-09T03:29:06.269Z,97527.48
2019-03-09T03:29:56.503Z,97530.48
2019-03-09T03:30:46.533Z,97534.80
2019-03-09T03:31:36.729Z,97528.34
2019-03-09T03:32:29.412Z,97532.43
2019-03-09T03:33:19.905Z,97525.40
2019-03-09T03:34:10.141Z,97525.68
2019-03-09T03:35:00.635Z,97522.41
2019-03-09T03:35:50.385Z,97519.72
2019-03-09T03:36:40.473Z,97531.86
2019-03-09T03:37:30.864Z,97518.12
2019-03-09T03:38:22.655Z,97521.88
2019-03-09T03:39:13.401Z,97519.19
2019-03-09T03:40:04.076Z,97519.22
2019-03-09T03:40:54.797Z,97511.09
2019-03-09T03:41:45.607Z,97512.16
2019-03-09T03:42:36.771Z,97517.80
2019-03-09T03:43:46.288Z,97517.55
2019-03-09T03:44:44.047Z,97523.52
2019-03-09T03:45:34.924Z,97519.97
2019-03-09T03:46:25.792Z,97512.66
2019-03-09T03:47:17.121Z,97512.36
2019-03-09T03:48:07.947Z,97514.81
2019-03-09T03:48:57.898Z,97510.23
2019-03-09T03:49:48.673Z,97506.97
2019-03-09T03:50:39.714Z,97504.23
2019-03-09T03:51:30.118Z,97509.91
2019-03-09T03:52:20.834Z,97502.06
2019-03-09T03:53:10.885Z,97513.64
2019-03-09T03:54:01.700Z,97503.70
2019-03-09T03:54:56.509Z,97502.84
2019-03-09T03:55:47.257Z,97507.70
2019-03-09T03:56:37.747Z,97512.00
2019-03-09T03:57:27.998Z,97508.80
2019-03-09T03:58:18.952Z,97509.59
2019-03-09T03:59:10.041Z,97514.20
2019-03-09T04:00:00.605Z,97505.01
2019-03-09T04:00:51.547Z,97507.95
2019-03-09T04:01:42.211Z,97514.70
2019-03-09T04:02:32.598Z,97503.13
2019-03-09T04:03:23.092Z,97503.13
2019-03-09T04:04:13.623Z,97510.44
2019-03-09T04:05:05.835Z,97510.44
2019-03-09T04:05:57.367Z,97512.61
2019-03-09T04:06:48.180Z,97502.34
2019-03-09T04:07:38.672Z,97502.06
2019-03-09T04:08:28.852Z,97497.23
2019-03-09T04:09:19.311Z,97494.50
2019-03-09T04:10:09.661Z,97501.24
2019-03-09T04:11:01.763Z,97491.27
2019-03-09T04:11:52.312Z,97505.01
2019-03-09T04:12:42.819Z,97505.82
2019-03-09T04:13:34.710Z,97499.05
2019-03-09T04:14:25.654Z,97485.84
2019-03-09T04:15:15.741Z,97487.19
2019-03-09T04:16:06.957Z,97496.88
2019-03-09T04:16:57.184Z,97494.14
2019-03-09T04:17:47.955Z,97494.95
2019-03-09T04:18:38.131Z,97498.75
2019-03-09T04:19:28.910Z,97492.33
2019-03-09T04:20:19.903Z,97491.52
2019-03-09T04:21:10.274Z,97493.69
2019-03-09T04:22:00.431Z,97499.05
2019-03-09T04:22:51.687Z,97492.58
2019-03-09T04:23:44.987Z,97486.87
2019-03-09T04:24:38.243Z,97496.84
2019-03-09T04:25:28.670Z,97494.42
2019-03-09T04:26:20.175Z,97497.09
2019-03-09T04:27:10.669Z,97496.02
2019-03-09T04:28:00.928Z,97496.02
2019-03-09T04:28:52.506Z,97494.92
2019-03-09T04:29:45.450Z,97490.62
2019-03-09T04:30:35.907Z,97489.03
2019-03-09T04:31:27.071Z,97487.40
2019-03-09T04:32:18.429Z,97480.69
2019-03-09T04:33:08.820Z,97475.83
2019-03-09T04:33:59.489Z,97482.36
2019-03-09T04:34:49.847Z,97484.20
2019-03-09T04:35:40.775Z,97476.93
2019-03-09T04:36:33.030Z,97484.45
2019-03-09T04:37:23.796Z,97482.00
2019-03-09T04:38:14.081Z,97481.75
2019-03-09T04:39:06.890Z,97487.15
2019-03-09T04:39:58.025Z,97477.70
2019-03-09T04:40:48.228Z,97477.42
2019-03-09T04:41:39.319Z,97482.28
2019-03-09T04:42:29.906Z,97481.50
2019-03-09T04:43:20.087Z,97478.52
2019-03-09T04:44:10.532Z,97470.97
2019-03-09T04:45:01.061Z,97467.73
2019-03-09T04:45:51.493Z,97476.93
2019-03-09T04:46:45.549Z,97471.78
2019-03-09T04:47:36.587Z,97482.00
2019-03-09T04:48:27.289Z,97473.62
2019-03-09T04:49:17.882Z,97474.72
2019-03-09T04:50:08.485Z,97474.44
2019-03-09T04:50:59.395Z,97473.33
2019-03-09T04:51:49.741Z,97469.05
2019-03-09T04:52:40.758Z,97464.47
2019-03-09T04:53:31.465Z,97467.41
2019-03-09T04:54:22.876Z,97465.28
2019-03-09T04:55:13.707Z,97468.27
2019-03-09T04:56:04.426Z,97459.39
2019-03-09T04:56:54.630Z,97466.70
2019-03-09T04:57:45.350Z,97464.29
2019-03-09T04:58:36.334Z,97467.77
2019-03-09T04:59:27.488Z,97459.92
2019-03-09T05:00:18.739Z,97468.27
2019-03-09T05:01:09.383Z,97463.94
2019-03-09T05:02:00.298Z,97463.90
2019-03-09T05:02:51.643Z,97461.77
2019-03-09T05:03:43.119Z,97462.87
2019-03-09T05:04:46.277Z,97455.06
2019-03-09T05:05:36.788Z,97456.95
2019-03-09T05:06:27.514Z,97456.41
2019-03-09T05:07:30.421Z,97457.80
2019-03-09T05:08:37.015Z,97443.20
2019-03-09T05:09:59.668Z,97445.37
2019-03-09T05:10:56.610Z,97445.91
2019-03-09T05:11:46.825Z,97445.91
2019-03-09T05:12:37.967Z,97441.61
2019-03-09T05:13:41.456Z,97437.53
2019-03-09T05:14:32.093Z,97436.17
2019-03-09T05:15:22.871Z,97434.33
2019-03-09T05:16:13.722Z,97437.84
2019-03-09T05:17:05.369Z,97429.78
2019-03-09T05:17:56.591Z,97421.69
2019-03-09T05:18:48.017Z,97421.69
2019-03-09T05:19:38.350Z,97434.39
2019-03-09T05:20:29.259Z,97428.74
2019-03-09T05:21:21.018Z,97430.91
2019-03-09T05:22:11.941Z,97429.81
2019-03-09T05:23:04.235Z,97429.78
2019-03-09T05:23:55.085Z,97427.36
2019-03-09T05:24:45.491Z,97428.47
2019-03-09T05:25:35.654Z,97429.81
2019-03-09T05:26:26.092Z,97422.25
2019-03-09T05:27:16.586Z,97425.23
2019-03-09T05:28:06.837Z,97420.65
2019-03-09T05:28:57.232Z,97427.93
2019-03-09T05:29:49.065Z,97416.06
2019-03-09T05:30:42.079Z,97419.58
2019-03-09T05:31:33.592Z,97416.06
2019-03-09T05:32:24.016Z,97416.34
2019-03-09T05:33:15.061Z,97419.33
2019-03-09T05:34:05.980Z,97410.98
2019-03-09T05:34:58.293Z,97420.98
2019-03-09T05:35:50.319Z,97400.46
2019-03-09T05:36:41.258Z,97412.61
2019-03-09T05:37:31.640Z,97413.14
2019-03-09T05:38:22.836Z,97405.32
2019-03-09T05:39:13.931Z,97413.42
2019-03-09T05:40:06.874Z,97403.19
2019-03-09T05:40:56.824Z,97406.42
2019-03-09T05:41:47.217Z,97407.79
2019-03-09T05:42:39.068Z,97413.75
2019-03-09T05:43:30.059Z,97407.53
2019-03-09T05:44:21.941Z,97408.38
2019-03-09T05:45:12.175Z,97411.08
2019-03-09T05:46:03.303Z,97407.02
2019-03-09T05:46:54.029Z,97408.13
2019-03-09T05:47:44.755Z,97412.16
2019-03-09T05:48:35.498Z,97412.44
2019-03-09T05:49:27.172Z,97408.39
2019-03-09T05:50:18.374Z,97403.82
2019-03-09T05:51:08.957Z,97418.67
2019-03-09T05:52:34.936Z,97414.11
2019-03-09T05:53:25.414Z,97407.34
2019-03-09T05:54:15.582Z,97400.05
2019-03-09T05:55:14.739Z,97413.58
2019-03-09T05:56:05.135Z,97407.66
2019-03-09T05:56:55.385Z,97409.02
2019-03-09T05:57:47.491Z,97409.01
2019-03-09T05:58:38.806Z,97402.53
2019-03-09T05:59:29.135Z,97411.71
2019-03-09T06:00:20.040Z,97416.87
2019-03-09T06:01:10.507Z,97407.67
2019-03-09T06:02:01.084Z,97398.77
2019-03-09T06:02:51.677Z,97412.00
2019-03-09T06:03:42.638Z,97411.19
2019-03-09T06:04:33.099Z,97407.16
2019-03-09T06:05:34.964Z,97404.19
2019-03-09T06:06:24.935Z,97407.96
2019-03-09T06:07:15.526Z,97405.83
2019-03-09T06:08:07.588Z,97415.55
2019-03-09T06:08:58.695Z,97410.13
2019-03-09T06:09:49.297Z,97413.38
2019-03-09T06:10:40.568Z,97412.56
2019-03-09T06:11:30.696Z,97404.73
2019-03-09T06:12:21.043Z,97412.59
2019-03-09T06:13:11.991Z,97415.55
2019-03-09T06:14:02.282Z,97406.92
2019-03-09T06:14:52.981Z,97408.81
2019-03-09T06:15:44.071Z,97399.08
2019-03-09T06:16:34.726Z,97404.73
2019-03-09T06:17:24.888Z,97397.73
2019-03-09T06:18:15.491Z,97398.27
2019-03-09T06:19:06.078Z,97399.06
2019-03-09T06:19:56.536Z,97402.84
2019-03-09T06:20:47.481Z,97395.56
2019-03-09T06:21:38.569Z,97404.48
2019-03-09T06:22:29.526Z,97402.30
2019-03-09T06:23:20.073Z,97396.36
2019-03-09T06:24:10.636Z,97397.45
2019-03-09T06:25:00.796Z,97392.03
2019-03-09T06:25:51.278Z,97392.86
2019-03-09T06:26:41.317Z,97385.80
2019-03-09T06:27:32.501Z,97394.75
2019-03-09T06:28:23.629Z,97397.97
2019-03-09T06:29:15.149Z,97389.06
2019-03-09T06:30:06.266Z,97393.64
2019-03-09T06:30:57.199Z,97386.63
2019-03-09T06:32:25.150Z,97389.58
2019-03-09T06:33:26.557Z,97389.58
2019-03-09T06:34:18.347Z,97402.02
2019-03-09T06:35:09.532Z,97395.52
2019-03-09T06:36:53.899Z,97400.38
2019-03-09T06:37:47.612Z,97393.61
2019-03-09T06:38:50.099Z,97390.09
2019-03-09T06:39:47.820Z,97399.81
2019-03-09T06:40:37.845Z,97393.84
2019-03-09T06:41:38.330Z,97386.25
2019-03-09T06:42:42.028Z,97393.55
2019-03-09T06:43:32.975Z,97391.12
2019-03-09T06:44:23.394Z,97390.29
2019-03-09T06:45:15.720Z,97384.59
2019-03-09T06:46:07.148Z,97393.77
2019-03-09T06:46:57.886Z,97391.58
2019-03-09T06:47:48.621Z,97383.44
2019-03-09T06:48:39.053Z,97388.31
2019-03-09T06:49:29.096Z,97391.28
2019-03-09T06:50:20.508Z,97386.63
2019-03-09T06:51:10.658Z,97390.69
2019-03-09T06:52:01.480Z,97387.17
2019-03-09T06:52:52.493Z,97389.07
2019-03-09T06:53:43.178Z,97383.06
2019-03-09T06:54:34.010Z,97385.19
2019-03-09T06:55:24.310Z,97384.83
2019-03-09T06:56:15.903Z,97390.52
2019-03-09T06:57:13.481Z,97391.86
2019-03-09T06:57:56.710Z,97394.02
2019-03-09T06:58:47.931Z,97384.81
2019-03-09T06:59:37.980Z,97383.70
2019-03-09T07:00:37.815Z,97377.70
2019-03-09T07:01:29.349Z,97373.88
2019-03-09T07:02:21.743Z,97377.84
2019-03-09T07:03:12.283Z,97388.42
2019-03-09T07:04:03.021Z,97387.00
2019-03-09T07:04:53.494Z,97378.02
2019-03-09T07:05:44.609Z,97387.47
2019-03-09T07:06:36.148Z,97388.48
2019-03-09T07:07:27.021Z,97383.83
2019-03-09T07:08:18.033Z,97382.47
2019-03-09T07:09:09.550Z,97386.20
2019-03-09T07:10:00.039Z,97391.58
2019-03-09T07:10:50.788Z,97396.66
2019-03-09T07:11:41.558Z,97391.73
2019-03-09T07:12:34.000Z,97391.95
2019-03-09T07:13:24.803Z,97391.91
2019-03-09T07:14:52.589Z,97384.27
2019-03-09T07:15:45.314Z,97383.99
2019-03-09T07:16:37.059Z,97379.78
2019-03-09T07:17:28.987Z,97381.86
2019-03-09T07:18:34.748Z,97384.25
2019-03-09T07:19:26.113Z,97392.84
2019-03-09T07:20:16.682Z,97393.64
2019-03-09T07:21:07.603Z,97387.66
2019-03-09T07:21:58.456Z,97382.25
2019-03-09T07:22:49.272Z,97388.11
2019-03-09T07:23:39.992Z,97389.73
2019-03-09T07:24:30.857Z,97378.56
2019-03-09T07:25:22.031Z,97389.86
2019-03-09T07:26:12.598Z,97384.73
2019-03-09T07:27:03.058Z,97382.50
2019-03-09T07:28:01.101Z,97380.55
2019-03-09T07:28:52.034Z,97378.85
2019-03-09T07:29:43.226Z,97365.00
2019-03-09T07:30:34.765Z,97366.25
2019-03-09T07:31:25.321Z,97377.44
2019-03-09T07:32:15.673Z,97369.28
2019-03-09T07:33:06.914Z,97364.61
2019-03-09T07:34:23.106Z,97365.70
2019-03-09T07:35:14.298Z,97363.31
2019-03-09T07:36:05.193Z,97358.97
2019-03-09T07:36:56.345Z,97354.45
2019-03-09T07:37:46.531Z,97363.37
2019-03-09T07:38:37.197Z,97361.42
2019-03-09T07:39:28.074Z,97360.00
2019-03-09T07:40:19.116Z,97365.38
2019-03-09T07:41:10.363Z,97367.48
2019-03-09T07:42:02.185Z,97367.14
2019-03-09T07:42:53.730Z,97363.27
2019-03-09T07:43:44.825Z,97364.55
2019-03-09T07:44:35.643Z,97367.70
2019-03-09T07:45:25.967Z,97373.91
2019-03-09T07:46:15.899Z,97374.50
2019-03-09T07:47:07.105Z,97372.47
2019-03-09T07:47:58.402Z,97366.37
2019-03-09T07:48:49.131Z,97369.02
2019-03-09T07:49:39.821Z,97367.77
2019-03-09T07:50:30.812Z,97367.00
2019-03-09T07:51:21.711Z,97363.05
2019-03-09T07:52:33.591Z,97357.38
2019-03-09T07:53:23.837Z,97358.05
2019-03-09T07:54:15.430Z,97358.13
2019-03-09T07:55:07.259Z,97363.69
2019-03-09T07:55:57.648Z,97365.77
2019-03-09T07:56:47.887Z,97365.06
2019-03-09T07:57:38.637Z,97356.70
2019-03-09T07:58:29.096Z,97359.79
2019-03-09T07:59:19.312Z,97366.99
2019-03-09T08:00:18.351Z,97367.64
2019-03-09T08:01:09.382Z,97361.18
2019-03-09T08:01:59.757Z,97362.34
2019-03-09T08:03:02.137Z,97360.25
2019-03-09T08:04:19.860Z,97357.38
2019-03-09T08:05:10.660Z,97349.39
2019-03-09T08:06:02.584Z,97352.41
2019-03-09T08:06:52.910Z,97342.92
2019-03-09T08:07:43.916Z,97350.92
2019-03-09T08:08:36.134Z,97346.08
2019-03-09T08:09:26.554Z,97349.76
2019-03-09T08:10:18.347Z,97346.48
2019-03-09T08:11:09.539Z,97352.77
2019-03-09T08:12:00.627Z,97356.92
2019-03-09T08:12:50.834Z,97350.90
2019-03-09T08:13:42.449Z,97354.16
2019-03-09T08:14:33.254Z,97353.64
2019-03-09T08:15:24.678Z,97352.81
2019-03-09T08:16:14.531Z,97346.32
2019-03-09T08:17:05.975Z,97352.16
2019-03-09T08:17:57.463Z,97343.65
2019-03-09T08:18:48.788Z,97348.17
2019-03-09T08:19:39.570Z,97344.48
2019-03-09T08:20:31.164Z,97337.01
2019-03-09T08:21:22.221Z,97344.91
2019-03-09T08:22:13.069Z,97339.46
2019-03-09T08:23:03.763Z,97320.39
2019-03-09T08:23:56.456Z,97329.97
2019-03-09T08:24:44.871Z,97319.38
2019-03-09T08:25:35.878Z,97318.82
2019-03-09T08:26:27.616Z,97323.64
2019-03-09T08:27:18.088Z,97313.67
2019-03-09T08:28:08.269Z,97318.19
2019-03-09T08:28:58.702Z,97322.14
2019-03-09T08:29:50.173Z,97319.41
2019-03-09T08:30:40.594Z,97324.88
2019-03-09T08:31:31.233Z,97322.64
2019-03-09T08:32:22.028Z,97342.21
2019-03-09T08:33:12.969Z,97335.62
2019-03-09T08:34:03.643Z,97335.22
2019-03-09T08:34:55.275Z,97345.36
2019-03-09T08:35:45.878Z,97342.06
2019-03-09T08:36:36.694Z,97340.69
2019-03-09T08:37:29.360Z,97333.59
2019-03-09T08:38:20.481Z,97336.59
2019-03-09T08:39:12.484Z,97327.88
2019-03-09T08:40:03.519Z,97322.65
2019-03-09T08:40:55.019Z,97320.38
2019-03-09T08:41:45.521Z,97327.88
2019-03-09T08:42:36.163Z,97322.39
2019-03-09T08:43:27.492Z,97320.94
2019-03-09T08:44:18.168Z,97323.20
2019-03-09T08:45:09.185Z,97323.62
2019-03-09T08:45:59.838Z,97322.25
2019-03-09T08:46:51.558Z,97325.70
2019-03-09T08:47:51.628Z,97319.91
2019-03-09T08:48:32.491Z,97316.52
2019-03-09T08:49:22.876Z,97320.06
2019-03-09T08:50:15.683Z,97320.31
2019-03-09T08:51:06.191Z,97314.61
2019-03-09T08:51:57.497Z,97309.05
2019-03-09T08:52:48.830Z,97314.84
2019-03-09T09:37:31.580Z,97288.88
2019-03-09T09:38:22.209Z,97294.48
2019-03-09T09:39:13.109Z,97295.06
2019-03-09T09:40:05.753Z,97295.19
2019-03-09T09:41:00.914Z,97287.85
